Adah, PA

7:55 PM EDT on September 30, 2014 (GMT -0400)
HillTop Rices Landing | Change Station
CLOSE
Current Station
Personal Weather Station
Location: Rices Landing, PA
Elevation: 1118 ft
Nearby Weather Stations

Elev 1118 ft 39.93 °N, 79.95 °W | Updated 7 seconds ago

Overcast
Overcast
60.1 °F
Feels Like 60.1 °F
N
0.0
Wind Variable Wind from SSE
Gusts 0.0 mph

Today
High -- | Low -- °F
--% Chance of Precip.
Yesterday
High -- | Low -- °F
Precip. -- in
7:14 AM 7:03 PM
Waxing Crescent, 41% visible
Pressure 29.92 in
Visibility 10.0 miles
Clouds Few 5500 ft
Mostly Cloudy 8500 ft
Overcast 11000 ft
Dew Point 58 °F
Humidity 92%
Rainfall 0.07 in
Snow Depth Not available.
UV 0 out of 12
Pollen 2.10 out of 12
Air Quality Not available.
Flu Activity Not available.
METAR KMGW 302253Z 00000KT 10SM FEW055 BKN085 OVC110 17/14 A2993 RMK AO2 SLP131 BC VLY FG T01670139

More Conditions Fewer Conditions

Pressure 29.92 in
Visibility 10.0 miles
Clouds Few 5500 ft
Mostly Cloudy 8500 ft
Overcast 11000 ft
Dew Point 58 °F
Humidity 92%
Rainfall 0.07 in
Snow Depth Not available.
UV 0 out of 12
Pollen 2.10 out of 12
Air Quality Not available.
Flu Activity Not available.
METAR KMGW 302253Z 00000KT 10SM FEW055 BKN085 OVC110 17/14 A2993 RMK AO2 SLP131 BC VLY FG T01670139

More Conditions Fewer Conditions

10-Day Weather Forecast

Almanac

Astronomy

Sep. 30, 2014 Rise Set
Actual Time 7:14 AM EDT 7:03 PM EDT
Civil Twilight 6:47 AM EDT 7:30 PM EDT
Nautical Twilight 6:16 AM EDT 8:01 PM EDT
Astronomical Twilight 5:44 AM EDT 8:33 PM EDT
Moon 1:21 PM EDT 11:32 PM EDT
Length of Visible Light 12h 42m
Length of Day
11h 48m
Tomorrow will be 2m 36s shorter.
Waxing Crescent, 41% of the Moon is Illuminated
Today
Waxing Crescent
Oct 1
First Quarter
Oct 8
Full
Oct 15
Last Quarter
Oct 23
New

Today's Extremes

State Highs State Lows

Community

WunderPhotos

Upload Photos

1,757,785 photos uploaded!

Nearby

Snow Depth

Station Depth Elevation
No new snow has been reported.

Earthquake Activity

City Distance Mag. Time & Date
No recent earthquake activity has been reported nearby.
Minimum magnitude displayed is 2.5.

Coastal Water Temperatures

Place Temperature
No Stations Reporting

Nearby Weather Stations